createdAt,value
2022-08-17T00:01:29.967Z,24.47
2022-08-17T00:04:01.409Z,24.45
2022-08-17T00:06:31.896Z,24.43
2022-08-17T00:09:03.816Z,24.50
2022-08-17T00:11:39.576Z,24.45
2022-08-17T00:14:14.209Z,24.63
2022-08-17T00:16:56.436Z,24.57
2022-08-17T00:19:22.854Z,24.48
2022-08-17T00:22:29.402Z,24.54
2022-08-17T00:24:28.223Z,24.43
2022-08-17T00:26:58.281Z,24.41
2022-08-17T00:29:28.141Z,24.41
2022-08-17T00:31:57.920Z,24.45
2022-08-17T00:34:27.907Z,24.50
2022-08-17T00:36:57.772Z,24.35
2022-08-17T00:39:27.597Z,24.42
2022-08-17T00:41:57.489Z,24.26
2022-08-17T00:44:30.292Z,24.27
2022-08-17T00:46:58.919Z,24.22
2022-08-17T00:49:29.557Z,24.18
2022-08-17T00:52:04.017Z,24.18
2022-08-17T00:54:42.009Z,24.37
2022-08-17T00:57:12.654Z,24.26
2022-08-17T00:59:45.985Z,24.30
2022-08-17T01:02:19.986Z,24.08
2022-08-17T01:04:52.920Z,24.26
2022-08-17T01:07:27.171Z,24.14
2022-08-17T01:09:57.022Z,24.33
2022-08-17T01:12:28.454Z,24.29
2022-08-17T01:14:58.220Z,24.08
2022-08-17T01:17:28.473Z,24.04
2022-08-17T01:19:58.326Z,24.04
2022-08-17T01:22:28.442Z,24.02
2022-08-17T01:25:03.221Z,24.21
2022-08-17T01:27:33.425Z,24.07
2022-08-17T01:30:06.492Z,24.08
2022-08-17T01:32:37.969Z,24.12
2022-08-17T01:35:09.189Z,24.06
2022-08-17T01:37:42.289Z,24.16
2022-08-17T01:40:38.996Z,24.00
2022-08-17T01:43:14.818Z,24.00
2022-08-17T01:46:03.893Z,23.99
2022-08-17T01:48:21.851Z,23.97
2022-08-17T01:50:53.175Z,23.98
2022-08-17T01:53:25.998Z,23.93
2022-08-17T01:55:58.831Z,24.02
2022-08-17T01:58:28.554Z,23.85
2022-08-17T02:01:00.905Z,24.00
2022-08-17T02:03:31.823Z,23.89
2022-08-17T02:06:02.418Z,23.83
2022-08-17T02:08:37.319Z,23.78
2022-08-17T02:11:11.238Z,23.91
2022-08-17T02:13:39.992Z,23.82
2022-08-17T02:16:11.364Z,23.83
2022-08-17T02:18:41.347Z,23.85
2022-08-17T02:21:11.762Z,23.92
2022-08-17T02:23:44.720Z,23.79
2022-08-17T02:26:25.814Z,23.83
2022-08-17T02:28:46.396Z,23.76
2022-08-17T02:31:16.233Z,23.28
2022-08-17T02:33:46.014Z,23.28
2022-08-17T02:36:17.400Z,23.49
2022-08-17T02:38:47.656Z,23.42
2022-08-17T02:41:17.499Z,23.42
2022-08-17T02:43:47.282Z,23.40
2022-08-17T02:46:17.034Z,23.42
2022-08-17T02:48:47.203Z,23.37
2022-08-17T02:51:17.750Z,23.30
2022-08-17T02:53:47.615Z,23.22
2022-08-17T02:56:17.960Z,23.20
2022-08-17T02:58:47.454Z,23.27
2022-08-17T03:01:17.930Z,23.27
2022-08-17T03:03:47.895Z,23.11
2022-08-17T03:06:17.753Z,23.11
2022-08-17T03:08:47.599Z,23.19
2022-08-17T03:11:17.689Z,23.07
2022-08-17T03:13:47.727Z,23.12
2022-08-17T03:16:17.548Z,23.03
2022-08-17T03:18:47.343Z,22.98
2022-08-17T03:21:17.424Z,22.88
2022-08-17T03:23:47.203Z,22.88
2022-08-17T03:26:18.676Z,22.97
2022-08-17T03:28:49.144Z,22.99
2022-08-17T03:31:19.059Z,22.92
2022-08-17T03:33:49.198Z,22.94
2022-08-17T03:36:18.981Z,22.84
2022-08-17T03:38:48.795Z,23.16
2022-08-17T03:41:20.244Z,23.05
2022-08-17T03:43:50.334Z,23.06
2022-08-17T03:46:37.299Z,23.06
2022-08-17T03:49:26.481Z,23.16
2022-08-17T03:52:15.374Z,23.01
2022-08-17T03:55:03.957Z,22.89
2022-08-17T03:57:34.031Z,22.82
2022-08-17T04:00:06.041Z,22.74
2022-08-17T04:02:37.598Z,22.78
2022-08-17T04:05:09.321Z,22.60
2022-08-17T04:07:39.379Z,22.52
2022-08-17T04:10:11.595Z,22.50
2022-08-17T04:12:48.329Z,22.69
2022-08-17T04:15:18.424Z,22.79
2022-08-17T04:17:48.979Z,22.73
2022-08-17T04:20:21.310Z,22.70
2022-08-17T04:23:02.808Z,22.81
2022-08-17T04:25:36.380Z,22.80
2022-08-17T04:28:15.633Z,22.83
2022-08-17T04:30:40.591Z,22.75
2022-08-17T04:33:13.910Z,22.86
2022-08-17T04:35:46.229Z,22.75
2022-08-17T04:38:19.057Z,22.94
2022-08-17T04:41:06.876Z,22.90
2022-08-17T04:43:37.971Z,22.85
2022-08-17T04:46:12.671Z,22.80
2022-08-17T04:48:44.833Z,23.03
2022-08-17T04:51:29.969Z,23.03
2022-08-17T04:54:11.980Z,23.10
2022-08-17T04:56:42.523Z,23.05
2022-08-17T04:59:16.970Z,22.83
2022-08-17T05:01:49.378Z,22.75
2022-08-17T05:04:34.616Z,22.80
2022-08-17T05:06:55.593Z,22.63
2022-08-17T05:09:25.365Z,22.63
2022-08-17T05:11:56.278Z,22.85
2022-08-17T05:14:33.170Z,22.85
2022-08-17T05:16:57.613Z,22.88
2022-08-17T05:19:27.468Z,23.00
2022-08-17T05:21:57.248Z,23.05
2022-08-17T05:24:42.478Z,22.93
2022-08-17T05:27:02.606Z,22.90
2022-08-17T05:29:35.108Z,23.13
2022-08-17T05:32:38.526Z,23.17
2022-08-17T05:34:41.213Z,23.10
2022-08-17T05:37:11.006Z,23.35
2022-08-17T05:39:40.571Z,23.04
2022-08-17T05:42:11.593Z,23.04
2022-08-17T05:44:41.361Z,23.09
2022-08-17T05:47:11.219Z,23.03
2022-08-17T05:49:40.800Z,23.22
2022-08-17T05:52:36.873Z,23.08
2022-08-17T05:55:26.075Z,23.07
2022-08-17T05:57:59.834Z,23.22
2022-08-17T06:00:42.103Z,23.22
2022-08-17T06:03:46.354Z,23.33
2022-08-17T06:06:21.887Z,23.16
2022-08-17T06:09:12.747Z,23.38
2022-08-17T06:11:53.518Z,22.75
2022-08-17T06:14:29.183Z,22.75
2022-08-17T06:17:01.866Z,23.13
2022-08-17T06:19:48.645Z,22.93
2022-08-17T06:22:21.811Z,22.96
2022-08-17T06:25:18.629Z,22.97
2022-08-17T06:27:54.374Z,23.26
2022-08-17T06:30:27.439Z,23.15
2022-08-17T06:33:01.271Z,23.29
2022-08-17T06:35:43.711Z,23.46
2022-08-17T06:38:34.146Z,23.53
2022-08-17T06:41:09.345Z,23.50
2022-08-17T06:43:48.215Z,23.61
2022-08-17T06:46:41.727Z,23.45
2022-08-17T06:49:29.435Z,23.94
2022-08-17T06:52:42.107Z,23.94
2022-08-17T06:55:09.362Z,23.65
2022-08-17T06:57:46.350Z,24.07
2022-08-17T07:00:19.210Z,24.13
2022-08-17T07:03:00.619Z,23.98
2022-08-17T07:05:36.694Z,23.98
2022-08-17T07:08:29.153Z,24.38
2022-08-17T07:11:00.853Z,24.38
2022-08-17T07:13:51.327Z,24.69
2022-08-17T07:16:27.388Z,24.70
2022-08-17T07:18:59.492Z,24.03
2022-08-17T07:21:40.671Z,24.21
2022-08-17T07:24:30.832Z,24.15
2022-08-17T07:27:15.528Z,24.18
2022-08-17T07:29:53.993Z,24.47
2022-08-17T07:32:26.539Z,23.80
2022-08-17T07:35:06.551Z,23.97
2022-08-17T07:37:39.059Z,24.15
2022-08-17T07:40:19.941Z,24.67
2022-08-17T07:43:11.492Z,24.85
2022-08-17T07:46:13.876Z,24.61
2022-08-17T07:48:46.416Z,24.98
2022-08-17T07:51:22.259Z,24.91
2022-08-17T07:53:52.223Z,25.05
2022-08-17T07:56:40.329Z,25.16
2022-08-17T07:59:20.470Z,24.98
2022-08-17T08:02:00.597Z,25.07
2022-08-17T08:04:59.741Z,25.02
2022-08-17T08:07:21.568Z,24.65
2022-08-17T08:10:13.804Z,24.61
2022-08-17T08:12:46.647Z,24.73
2022-08-17T08:15:22.518Z,24.96
2022-08-17T08:18:01.008Z,24.97
2022-08-17T08:20:51.556Z,25.23
2022-08-17T08:23:42.645Z,25.34
2022-08-17T08:26:26.311Z,25.01
2022-08-17T08:29:08.320Z,25.57
2022-08-17T08:32:16.279Z,25.57
2022-08-17T08:35:01.792Z,25.57
2022-08-17T08:37:40.513Z,25.57
2022-08-17T08:40:13.899Z,25.23
2022-08-17T08:43:22.208Z,25.10
2022-08-17T08:45:57.710Z,24.61
2022-08-17T08:48:53.215Z,23.19
2022-08-17T08:51:41.848Z,22.54
2022-08-17T08:54:32.687Z,21.79
2022-08-17T08:57:32.890Z,21.57
2022-08-17T09:00:19.294Z,21.64
2022-08-17T09:03:04.079Z,21.59
2022-08-17T09:05:45.541Z,21.39
2022-08-17T09:08:38.065Z,21.57
2022-08-17T09:12:02.393Z,21.81
2022-08-17T09:14:43.256Z,21.99
2022-08-17T09:17:21.970Z,21.99
2022-08-17T09:20:00.404Z,22.55
2022-08-17T09:22:38.839Z,23.09
2022-08-17T09:25:11.853Z,23.24
2022-08-17T09:27:53.175Z,23.57
2022-08-17T09:30:23.698Z,24.19
2022-08-17T09:33:02.818Z,24.32
2022-08-17T09:35:37.036Z,24.87
2022-08-17T09:38:32.523Z,24.87
2022-08-17T09:41:13.384Z,25.36
2022-08-17T09:43:46.210Z,25.40
2022-08-17T09:46:27.886Z,25.52
2022-08-17T09:49:09.807Z,25.23
2022-08-17T09:51:50.927Z,25.58
2022-08-17T09:54:41.767Z,25.63
2022-08-17T09:57:28.638Z,26.07
2022-08-17T09:59:58.128Z,25.95
2022-08-17T10:02:40.347Z,26.06
2022-08-17T10:05:21.763Z,26.06
2022-08-17T10:08:07.951Z,26.23
2022-08-17T10:10:52.492Z,26.02
2022-08-17T10:13:29.880Z,26.18
2022-08-17T10:16:04.245Z,26.07
2022-08-17T10:18:37.720Z,25.72
2022-08-17T10:21:28.019Z,25.83
2022-08-17T10:24:41.142Z,25.47
2022-08-17T10:27:15.830Z,25.47
2022-08-17T10:29:51.201Z,25.73
2022-08-17T10:32:41.976Z,25.41
2022-08-17T10:35:17.069Z,25.14
2022-08-17T10:38:06.533Z,25.11
2022-08-17T10:40:57.413Z,24.79
2022-08-17T10:44:36.630Z,24.61
2022-08-17T10:46:54.122Z,24.87
2022-08-17T10:49:33.850Z,24.90
2022-08-17T10:52:12.257Z,25.21
2022-08-17T10:54:47.755Z,25.22
2022-08-17T10:57:32.182Z,25.47
2022-08-17T11:00:27.611Z,25.23
2022-08-17T11:02:58.577Z,25.07
2022-08-17T11:05:50.227Z,25.03
2022-08-17T11:08:48.537Z,24.62
2022-08-17T11:11:34.560Z,24.65
2022-08-17T11:14:23.977Z,24.10
2022-08-17T11:17:13.005Z,24.10
2022-08-17T11:20:05.084Z,24.11
2022-08-17T11:22:40.785Z,24.12
2022-08-17T11:25:18.745Z,24.10
2022-08-17T11:27:53.682Z,23.91
2022-08-17T11:30:43.527Z,23.99
2022-08-17T11:33:36.802Z,23.96
2022-08-17T11:36:31.333Z,23.95
2022-08-17T11:39:10.079Z,23.98
2022-08-17T11:41:49.833Z,23.98
2022-08-17T11:44:31.159Z,24.13
2022-08-17T11:47:38.094Z,24.26
2022-08-17T11:50:30.133Z,24.36
2022-08-17T11:53:01.207Z,24.05
2022-08-17T11:55:39.538Z,23.98
2022-08-17T11:58:31.653Z,23.69
2022-08-17T12:01:03.875Z,23.96
2022-08-17T12:03:38.400Z,23.87
2022-08-17T12:06:30.399Z,23.93
2022-08-17T12:09:13.571Z,23.94
2022-08-17T12:12:13.263Z,24.06
2022-08-17T12:15:05.730Z,24.31
2022-08-17T12:17:09.933Z,24.27
2022-08-17T12:19:43.106Z,24.33
2022-08-17T12:22:29.347Z,24.33
2022-08-17T12:25:04.886Z,24.17
2022-08-17T12:27:46.160Z,24.16
2022-08-17T12:30:16.158Z,24.07
2022-08-17T12:32:48.196Z,23.59
2022-08-17T12:35:34.223Z,23.59
2022-08-17T12:38:26.888Z,23.62
2022-08-17T12:40:39.233Z,23.47
2022-08-17T12:43:12.059Z,23.73
2022-08-17T12:45:41.982Z,23.88
2022-08-17T12:48:14.781Z,23.97
2022-08-17T12:50:47.072Z,24.22
2022-08-17T12:53:20.157Z,24.31
2022-08-17T12:55:51.065Z,24.03
2022-08-17T12:58:24.920Z,23.90
2022-08-17T13:01:09.480Z,24.05
2022-08-17T13:03:42.733Z,24.05
2022-08-17T13:06:14.954Z,23.86
2022-08-17T13:08:47.941Z,23.96
2022-08-17T13:11:24.582Z,23.96
2022-08-17T13:13:56.582Z,23.88
2022-08-17T13:16:33.343Z,23.85
2022-08-17T13:19:20.092Z,23.92
2022-08-17T13:21:54.737Z,23.91
2022-08-17T13:24:38.027Z,23.59
2022-08-17T13:27:10.001Z,23.67
2022-08-17T13:29:44.090Z,23.61
2022-08-17T13:32:23.045Z,23.44
2022-08-17T13:35:14.324Z,23.60
2022-08-17T13:37:36.268Z,23.56
2022-08-17T13:40:14.898Z,23.40
2022-08-17T13:42:52.754Z,23.61
2022-08-17T13:45:38.893Z,23.48
2022-08-17T13:48:24.669Z,23.18
2022-08-17T13:51:00.429Z,22.62
2022-08-17T13:53:36.296Z,22.35
2022-08-17T13:56:37.249Z,22.34
2022-08-17T13:58:55.187Z,22.36
2022-08-17T14:01:30.773Z,22.45
2022-08-17T14:04:03.552Z,22.52
2022-08-17T14:06:53.209Z,22.57
2022-08-17T14:09:07.558Z,22.92
2022-08-17T14:11:38.081Z,23.26
2022-08-17T14:14:10.000Z,23.71
2022-08-17T14:16:42.181Z,24.12
2022-08-17T14:19:14.009Z,24.21
2022-08-17T14:21:46.676Z,24.26
2022-08-17T14:24:24.921Z,24.13
2022-08-17T14:26:55.687Z,24.11
2022-08-17T14:29:27.876Z,24.06
2022-08-17T14:31:59.598Z,23.85
2022-08-17T14:34:29.256Z,23.60
2022-08-17T14:36:59.046Z,24.24
2022-08-17T14:39:28.805Z,24.60
2022-08-17T14:41:58.614Z,24.60
2022-08-17T14:44:28.212Z,24.89
2022-08-17T14:46:58.072Z,25.02
2022-08-17T14:49:27.976Z,24.82
2022-08-17T14:51:57.549Z,24.73
2022-08-17T14:54:33.581Z,24.73
2022-08-17T14:57:02.847Z,25.10
2022-08-17T14:59:31.677Z,25.60
2022-08-17T15:02:02.571Z,25.89
2022-08-17T15:04:32.633Z,26.25
2022-08-17T15:07:03.610Z,25.99
2022-08-17T15:09:35.763Z,26.10
2022-08-17T15:12:06.995Z,25.78
2022-08-17T15:14:37.642Z,25.42
2022-08-17T15:17:07.435Z,25.20
2022-08-17T15:19:37.208Z,25.39
2022-08-17T15:22:27.236Z,25.32
2022-08-17T15:24:59.007Z,25.32
2022-08-17T15:27:32.608Z,25.27
2022-08-17T15:29:59.972Z,25.14
2022-08-17T15:32:35.239Z,25.09
2022-08-17T15:35:11.651Z,25.15
2022-08-17T15:37:41.851Z,24.82
2022-08-17T15:40:13.398Z,24.98
2022-08-17T15:42:43.241Z,25.03
2022-08-17T15:45:14.159Z,24.89
2022-08-17T15:47:44.020Z,24.87
2022-08-17T15:50:13.535Z,24.99
2022-08-17T15:52:44.878Z,24.87
2022-08-17T15:55:17.214Z,24.77
2022-08-17T15:57:47.855Z,24.60
2022-08-17T16:00:17.495Z,24.54
2022-08-17T16:03:20.308Z,24.55
2022-08-17T16:05:25.304Z,24.73
2022-08-17T16:07:55.979Z,24.63
2022-08-17T16:10:34.575Z,24.30
2022-08-17T16:12:58.609Z,24.30
2022-08-17T16:15:29.813Z,24.23
2022-08-17T16:17:59.940Z,24.09
2022-08-17T16:20:30.766Z,24.09
2022-08-17T16:23:00.911Z,23.94
2022-08-17T16:25:47.218Z,24.15
2022-08-17T16:28:07.654Z,24.03
2022-08-17T16:30:38.227Z,24.01
2022-08-17T16:33:11.188Z,23.69
2022-08-17T16:35:41.902Z,23.68
2022-08-17T16:38:12.466Z,23.68
2022-08-17T16:40:42.491Z,23.82
2022-08-17T16:43:12.277Z,23.33
2022-08-17T16:45:42.221Z,23.55
2022-08-17T16:48:11.803Z,23.32
2022-08-17T16:50:42.454Z,23.32
2022-08-17T16:53:17.800Z,23.36
2022-08-17T16:55:51.930Z,23.44
2022-08-17T16:58:21.780Z,23.60
2022-08-17T17:00:51.756Z,23.55
2022-08-17T17:03:24.581Z,23.61
2022-08-17T17:06:09.074Z,23.54
2022-08-17T17:08:59.877Z,23.42
2022-08-17T17:11:33.593Z,23.36
2022-08-17T17:14:07.760Z,23.20
2022-08-17T17:16:46.566Z,23.27
2022-08-17T17:19:34.429Z,23.40
2022-08-17T17:22:07.306Z,23.62
2022-08-17T17:25:07.415Z,23.64
2022-08-17T17:27:48.754Z,23.61
2022-08-17T17:30:27.541Z,23.71
2022-08-17T17:33:06.296Z,23.61
2022-08-17T17:35:43.462Z,23.49
2022-08-17T17:38:22.024Z,23.68
2022-08-17T17:41:02.181Z,22.99
2022-08-17T17:43:38.946Z,22.99
2022-08-17T17:46:26.867Z,23.23
2022-08-17T17:48:38.093Z,23.16
2022-08-17T17:51:13.488Z,23.11
2022-08-17T17:54:08.168Z,23.12
2022-08-17T17:56:44.512Z,23.16
2022-08-17T17:59:30.036Z,23.16
2022-08-17T18:02:11.767Z,23.06
2022-08-17T18:04:47.049Z,22.84
2022-08-17T18:07:34.759Z,22.89
2022-08-17T18:10:29.533Z,22.82
2022-08-17T18:13:12.796Z,22.89
2022-08-17T18:15:51.583Z,22.66
2022-08-17T18:18:31.617Z,22.60
2022-08-17T18:21:07.179Z,22.68
2022-08-17T18:23:36.763Z,22.58
2022-08-17T18:26:08.091Z,22.56
2022-08-17T18:28:41.652Z,22.61
2022-08-17T18:31:14.467Z,22.51
2022-08-17T18:33:49.764Z,22.26
2022-08-17T18:36:28.002Z,22.26
2022-08-17T18:39:24.179Z,22.44
2022-08-17T18:41:59.035Z,22.38
2022-08-17T18:44:32.633Z,22.30
2022-08-17T18:47:17.481Z,22.36
2022-08-17T18:49:51.788Z,22.33
2022-08-17T18:52:29.414Z,22.31
2022-08-17T18:55:14.164Z,22.30
2022-08-17T18:57:52.402Z,22.15
2022-08-17T19:00:40.462Z,22.01
2022-08-17T19:03:25.378Z,22.08
2022-08-17T19:05:58.206Z,22.11
2022-08-17T19:08:33.711Z,22.05
2022-08-17T19:11:23.621Z,21.95
2022-08-17T19:14:02.212Z,21.87
2022-08-17T19:16:35.051Z,21.87
2022-08-17T19:19:28.767Z,21.78
2022-08-17T19:22:01.336Z,21.75
2022-08-17T19:24:34.423Z,21.65
2022-08-17T19:27:22.194Z,21.62
2022-08-17T19:30:08.353Z,21.64
2022-08-17T19:32:37.828Z,21.64
2022-08-17T19:35:16.688Z,21.47
2022-08-17T19:37:57.391Z,21.50
2022-08-17T19:40:54.688Z,21.71
2022-08-17T19:43:24.979Z,21.56
2022-08-17T19:46:07.052Z,21.32
2022-08-17T19:48:42.723Z,21.49
2022-08-17T19:51:42.479Z,21.30
2022-08-17T19:54:19.332Z,21.30
2022-08-17T19:56:57.823Z,21.43
2022-08-17T19:59:51.761Z,21.53
2022-08-17T20:02:30.112Z,21.49
2022-08-17T20:05:02.653Z,21.47
2022-08-17T20:07:51.755Z,21.23
2022-08-17T20:10:33.559Z,21.25
2022-08-17T20:13:07.055Z,21.25
2022-08-17T20:15:39.120Z,21.29
2022-08-17T20:18:17.225Z,21.37
2022-08-17T20:21:02.950Z,21.35
2022-08-17T20:23:55.193Z,21.29
2022-08-17T20:26:30.308Z,21.29
2022-08-17T20:29:08.704Z,21.19
2022-08-17T20:31:53.671Z,21.20
2022-08-17T20:34:30.788Z,21.36
2022-08-17T20:37:15.325Z,21.31
2022-08-17T20:39:48.354Z,21.44
2022-08-17T20:42:27.772Z,21.44
2022-08-17T20:45:19.502Z,21.64
2022-08-17T20:48:22.127Z,21.53
2022-08-17T20:50:34.458Z,21.46
2022-08-17T20:53:08.135Z,21.51
2022-08-17T20:55:51.585Z,21.38
2022-08-17T20:58:22.963Z,21.32
2022-08-17T21:01:01.469Z,21.23
2022-08-17T21:03:50.930Z,21.29
2022-08-17T21:06:17.065Z,21.21
2022-08-17T21:08:58.707Z,21.06
2022-08-17T21:11:56.766Z,21.03
2022-08-17T21:14:36.791Z,20.88
2022-08-17T21:17:31.725Z,21.16
2022-08-17T21:20:14.451Z,20.95
2022-08-17T21:23:05.232Z,20.95
2022-08-17T21:26:10.852Z,21.03
2022-08-17T21:29:31.936Z,21.05
2022-08-17T21:31:58.328Z,20.90
2022-08-17T21:34:33.313Z,20.76
2022-08-17T21:37:23.300Z,20.80
2022-08-17T21:39:59.099Z,20.69
2022-08-17T21:42:34.587Z,20.64
2022-08-17T21:45:18.842Z,20.74
2022-08-17T21:48:09.374Z,20.74
2022-08-17T21:50:41.552Z,20.75
2022-08-17T21:53:14.734Z,20.75
2022-08-17T21:55:46.292Z,20.82
2022-08-17T21:58:21.930Z,20.77
2022-08-17T22:00:54.484Z,20.71
2022-08-17T22:03:26.365Z,20.71
2022-08-17T22:05:56.156Z,20.83
2022-08-17T22:08:26.337Z,20.83
2022-08-17T22:11:03.002Z,21.07
2022-08-17T22:13:33.342Z,21.07
2022-08-17T22:16:28.154Z,21.29
2022-08-17T22:18:41.741Z,20.95
2022-08-17T22:21:11.897Z,21.12
2022-08-17T22:24:04.872Z,21.07
2022-08-17T22:27:00.174Z,21.24
2022-08-17T22:29:54.360Z,21.28
2022-08-17T22:32:40.144Z,21.16
2022-08-17T22:35:21.774Z,21.24
2022-08-17T22:37:51.820Z,21.21
2022-08-17T22:40:30.386Z,21.21
2022-08-17T22:43:03.443Z,21.07
2022-08-17T22:45:33.459Z,21.15
2022-08-17T22:48:03.677Z,21.25
2022-08-17T22:50:33.618Z,21.32
2022-08-17T22:53:23.761Z,21.25
2022-08-17T22:56:14.322Z,21.22
2022-08-17T22:59:10.597Z,21.19
2022-08-17T23:01:41.523Z,21.19
2022-08-17T23:04:36.341Z,21.38
2022-08-17T23:07:09.143Z,21.38
2022-08-17T23:09:39.309Z,21.44
2022-08-17T23:12:14.766Z,21.37
2022-08-17T23:14:46.155Z,21.38
2022-08-17T23:17:16.310Z,21.38
2022-08-17T23:19:46.160Z,21.27
2022-08-17T23:22:15.642Z,21.36
2022-08-17T23:24:50.432Z,21.49
2022-08-17T23:27:22.015Z,21.49
2022-08-17T23:29:51.797Z,21.39
2022-08-17T23:32:22.149Z,21.42
2022-08-17T23:34:52.269Z,21.45
2022-08-17T23:37:22.075Z,21.58
2022-08-17T23:39:51.947Z,21.78
2022-08-17T23:42:21.834Z,21.48
2022-08-17T23:44:51.571Z,21.37
2022-08-17T23:47:21.351Z,21.54
2022-08-17T23:49:54.206Z,21.68
2022-08-17T23:52:22.852Z,21.59
2022-08-17T23:54:52.640Z,21.67
2022-08-17T23:57:33.803Z,21.72
2022-08-17T23:59:54.582Z,21.74
